La rose des vents
Donnes mto: Semaine 21/03/22 - 27/03/22 (S 12)
Date Horaire Temp. E. Hum. E. P.atmo. Pluie Vent 1mn Direction Ensoleilleme Ev.Tr. Solaire P. de rose Temp au vent Rafales
21/03/2022 00:00 7,7 C 56 % 1032,4 hPa 0,0 mm 0,0 km/h (0 Bft) N 0,00 h 0,025 mm 0 W/m -0,5 C 7,7 C 0,0 km/h (0 Bft)
21/03/2022 01:00 7,3 C 55 % 1032,2 hPa 0,0 mm 0,0 km/h (0 Bft) N 0,00 h 0,025 mm 0 W/m -1,1 C 7,3 C 0,0 km/h (0 Bft)
21/03/2022 02:00 7,1 C 57 % 1031,9 hPa 0,0 mm 0,0 km/h (0 Bft) N-NO 0,00 h 0,025 mm 0 W/m -0,7 C 7,1 C 0,3 km/h (0 Bft)
21/03/2022 03:00 6,5 C 60 % 1031,6 hPa 0,0 mm 1,1 km/h (1 Bft) N-NO 0,00 h 0,025 mm 0 W/m -0,7 C 6,4 C 2,2 km/h (1 Bft)
21/03/2022 04:00 6,3 C 61 % 1031,7 hPa 0,0 mm 0,7 km/h (0 Bft) NO 0,00 h 0,025 mm 0 W/m -0,7 C 6,3 C 2,5 km/h (1 Bft)
21/03/2022 05:00 6,3 C 59 % 1031,9 hPa 0,0 mm 0,9 km/h (0 Bft) NO 0,00 h 0,025 mm 0 W/m -1,0 C 6,3 C 2,3 km/h (1 Bft)
21/03/2022 06:00 6,3 C 60 % 1032,5 hPa 0,0 mm 0,2 km/h (0 Bft) NO 0,00 h 0,025 mm 10 W/m -0,9 C 6,3 C 0,9 km/h (0 Bft)
21/03/2022 07:00 6,4 C 62 % 1033,3 hPa 0,0 mm 0,1 km/h (0 Bft) NO 0,00 h 0,000 mm 47 W/m -0,3 C 6,4 C 0,3 km/h (0 Bft)
21/03/2022 08:00 9,2 C 56 % 1033,8 hPa 0,0 mm 0,6 km/h (0 Bft) E 0,62 h 0,025 mm 201 W/m 1,0 C 9,2 C 2,6 km/h (1 Bft)
21/03/2022 09:00 12,6 C 46 % 1033,8 hPa 0,0 mm 1,8 km/h (1 Bft) E-SE 1,00 h 0,102 mm 397 W/m 1,2 C 12,6 C 8,4 km/h (2 Bft)
21/03/2022 10:00 14,0 C 43 % 1034,0 hPa 0,0 mm 3,0 km/h (1 Bft) E 1,00 h 0,203 mm 529 W/m 1,7 C 14,0 C 11,3 km/h (2 Bft)
21/03/2022 11:00 15,0 C 43 % 1033,8 hPa 0,0 mm 2,4 km/h (1 Bft) E 1,00 h 0,305 mm 624 W/m 2,5 C 15,0 C 10,1 km/h (2 Bft)
21/03/2022 12:00 15,1 C 41 % 1033,6 hPa 0,0 mm 2,6 km/h (1 Bft) E 1,00 h 0,356 mm 660 W/m 2,1 C 15,1 C 10,5 km/h (2 Bft)
21/03/2022 13:00 15,4 C 40 % 1033,1 hPa 0,0 mm 3,3 km/h (1 Bft) E 1,00 h 0,356 mm 639 W/m 1,7 C 15,4 C 10,4 km/h (2 Bft)
21/03/2022 14:00 15,3 C 38 % 1032,6 hPa 0,0 mm 2,1 km/h (1 Bft) E 1,00 h 0,356 mm 574 W/m 1,2 C 15,3 C 8,8 km/h (2 Bft)
21/03/2022 15:00 14,8 C 37 % 1032,2 hPa 0,0 mm 2,6 km/h (1 Bft) E 1,00 h 0,330 mm 453 W/m 0,3 C 14,8 C 10,0 km/h (2 Bft)
21/03/2022 16:00 14,2 C 41 % 1032,0 hPa 0,0 mm 1,9 km/h (1 Bft) E 1,00 h 0,254 mm 305 W/m 1,3 C 14,2 C 6,9 km/h (2 Bft)
21/03/2022 17:00 13,0 C 45 % 1031,7 hPa 0,0 mm 1,0 km/h (0 Bft) E 0,90 h 0,178 mm 145 W/m 1,2 C 13,0 C 4,6 km/h (1 Bft)
21/03/2022 18:00 10,9 C 48 % 1031,8 hPa 0,0 mm 0,2 km/h (0 Bft) E-SE 0,13 h 0,076 mm 27 W/m 0,3 C 10,9 C 1,4 km/h (1 Bft)
21/03/2022 19:00 9,3 C 51 % 1032,1 hPa 0,0 mm 0,0 km/h (0 Bft) N 0,00 h 0,025 mm 0 W/m -0,2 C 9,3 C 0,5 km/h (0 Bft)
21/03/2022 20:00 8,2 C 54 % 1032,2 hPa 0,0 mm 0,8 km/h (0 Bft) NO 0,00 h 0,000 mm 0 W/m -0,5 C 8,2 C 2,6 km/h (1 Bft)
21/03/2022 21:00 7,5 C 56 % 1032,5 hPa 0,0 mm 0,5 km/h (0 Bft) NO 0,00 h 0,025 mm 0 W/m -0,7 C 7,5 C 2,0 km/h (1 Bft)
21/03/2022 22:00 7,0 C 58 % 1032,5 hPa 0,0 mm 1,1 km/h (1 Bft) NO 0,00 h 0,025 mm 0 W/m -0,7 C 7,0 C 3,3 km/h (1 Bft)
21/03/2022 23:00 6,8 C 59 % 1032,2 hPa 0,0 mm 0,2 km/h (0 Bft) NO 0,00 h 0,025 mm 0 W/m -0,7 C 6,8 C 1,7 km/h (1 Bft)
22/03/2022 00:00 6,3 C 60 % 1032,1 hPa 0,0 mm 1,2 km/h (1 Bft) NO 0,00 h 0,025 mm 0 W/m -0,9 C 6,3 C 2,6 km/h (1 Bft)
22/03/2022 01:00 5,7 C 59 % 1032,1 hPa 0,0 mm 1,8 km/h (1 Bft) NO 0,00 h 0,025 mm 0 W/m -1,6 C 5,7 C 3,9 km/h (1 Bft)
22/03/2022 02:00 5,9 C 55 % 1031,9 hPa 0,0 mm 0,7 km/h (0 Bft) NO 0,00 h 0,025 mm 0 W/m -2,5 C 5,9 C 3,0 km/h (1 Bft)
22/03/2022 03:00 6,1 C 53 % 1031,5 hPa 0,0 mm 0,2 km/h (0 Bft) NO 0,00 h 0,025 mm 0 W/m -2,7 C 6,1 C 1,3 km/h (1 Bft)
22/03/2022 04:00 6,1 C 48 % 1031,6 hPa 0,0 mm 0,1 km/h (0 Bft) NO 0,00 h 0,025 mm 0 W/m -4,0 C 6,1 C 0,8 km/h (0 Bft)
22/03/2022 05:00 5,9 C 47 % 1031,7 hPa 0,0 mm 0,2 km/h (0 Bft) NO 0,00 h 0,025 mm 0 W/m -4,5 C 5,9 C 1,1 km/h (0 Bft)
22/03/2022 06:00 5,9 C 49 % 1032,2 hPa 0,0 mm 0,2 km/h (0 Bft) NO 0,05 h 0,025 mm 12 W/m -4,0 C 5,9 C 1,1 km/h (0 Bft)
22/03/2022 07:00 6,4 C 53 % 1032,3 hPa 0,0 mm 0,1 km/h (0 Bft) NO 0,00 h 0,000 mm 38 W/m -2,4 C 6,4 C 0,5 km/h (0 Bft)
22/03/2022 08:00 8,9 C 52 % 1032,7 hPa 0,0 mm 0,0 km/h (0 Bft) N 0,65 h 0,025 mm 219 W/m -0,5 C 8,9 C 0,0 km/h (0 Bft)
22/03/2022 09:00 13,2 C 43 % 1032,9 hPa 0,0 mm 0,7 km/h (0 Bft) E 1,00 h 0,102 mm 428 W/m 1,0 C 13,2 C 2,7 km/h (1 Bft)
22/03/2022 10:00 15,6 C 43 % 1033,1 hPa 0,0 mm 1,5 km/h (1 Bft) E 1,00 h 0,229 mm 553 W/m 3,1 C 15,6 C 6,6 km/h (2 Bft)
22/03/2022 11:00 15,9 C 39 % 1033,2 hPa 0,0 mm 2,5 km/h (1 Bft) E-SE 1,00 h 0,305 mm 644 W/m 1,8 C 15,9 C 8,1 km/h (2 Bft)
22/03/2022 12:00 15,6 C 41 % 1033,1 hPa 0,0 mm 2,4 km/h (1 Bft) E 1,00 h 0,356 mm 675 W/m 2,4 C 15,6 C 6,9 km/h (2 Bft)
22/03/2022 13:00 16,1 C 40 % 1032,5 hPa 0,0 mm 1,4 km/h (1 Bft) E 1,00 h 0,381 mm 660 W/m 2,4 C 16,1 C 5,0 km/h (1 Bft)
22/03/2022 14:00 16,7 C 39 % 1031,9 hPa 0,0 mm 0,7 km/h (0 Bft) E-SE 1,00 h 0,356 mm 590 W/m 2,8 C 16,7 C 2,5 km/h (1 Bft)
22/03/2022 15:00 16,6 C 41 % 1031,5 hPa 0,0 mm 0,5 km/h (0 Bft) E 1,00 h 0,330 mm 472 W/m 3,4 C 16,6 C 2,7 km/h (1 Bft)
22/03/2022 16:00 15,9 C 41 % 1031,1 hPa 0,0 mm 0,4 km/h (0 Bft) E 1,00 h 0,254 mm 318 W/m 2,6 C 15,9 C 1,9 km/h (1 Bft)
22/03/2022 17:00 14,7 C 43 % 1031,0 hPa 0,0 mm 0,0 km/h (0 Bft) N 0,90 h 0,178 mm 148 W/m 2,2 C 14,7 C 0,1 km/h (0 Bft)
22/03/2022 18:00 12,3 C 48 % 1031,1 hPa 0,0 mm 0,0 km/h (0 Bft) N 0,00 h 0,076 mm 19 W/m 1,5 C 12,3 C 0,0 km/h (0 Bft)
22/03/2022 19:00 10,3 C 54 % 1031,2 hPa 0,0 mm 0,0 km/h (0 Bft) N 0,00 h 0,025 mm 0 W/m 1,4 C 10,3 C 0,0 km/h (0 Bft)
22/03/2022 20:00 9,0 C 55 % 1031,3 hPa 0,0 mm 0,0 km/h (0 Bft) N 0,00 h 0,000 mm 0 W/m 0,6 C 9,0 C 0,0 km/h (0 Bft)
22/03/2022 21:00 8,3 C 58 % 1031,3 hPa 0,0 mm 0,1 km/h (0 Bft) E 0,00 h 0,025 mm 0 W/m 0,4 C 8,3 C 0,6 km/h (0 Bft)
22/03/2022 22:00 8,0 C 56 % 1031,1 hPa 0,0 mm 0,5 km/h (0 Bft) E 0,00 h 0,025 mm 0 W/m -0,1 C 8,0 C 2,3 km/h (1 Bft)
22/03/2022 23:00 8,0 C 53 % 1030,9 hPa 0,0 mm 0,9 km/h (0 Bft) NO 0,00 h 0,025 mm 0 W/m -1,0 C 8,0 C 3,2 km/h (1 Bft)
23/03/2022 00:00 8,1 C 53 % 1030,5 hPa 0,0 mm 1,1 km/h (0 Bft) NO 0,00 h 0,025 mm 0 W/m -0,8 C 8,1 C 3,3 km/h (1 Bft)
23/03/2022 01:00 7,7 C 55 % 1030,3 hPa 0,0 mm 0,1 km/h (0 Bft) O 0,00 h 0,025 mm 0 W/m -0,7 C 7,7 C 1,5 km/h (1 Bft)
23/03/2022 02:00 7,2 C 56 % 1029,9 hPa 0,0 mm 0,0 km/h (0 Bft) O 0,00 h 0,025 mm 0 W/m -1,0 C 7,2 C 0,6 km/h (0 Bft)
23/03/2022 03:00 6,8 C 54 % 1029,7 hPa 0,0 mm 0,1 km/h (0 Bft) O 0,00 h 0,025 mm 0 W/m -1,7 C 6,8 C 1,1 km/h (0 Bft)
23/03/2022 04:00 6,6 C 52 % 1029,6 hPa 0,0 mm 0,1 km/h (0 Bft) O 0,00 h 0,025 mm 0 W/m -2,7 C 6,6 C 1,3 km/h (1 Bft)
23/03/2022 05:00 5,8 C 51 % 1029,5 hPa 0,0 mm 0,6 km/h (0 Bft) O 0,00 h 0,025 mm 0 W/m -3,5 C 5,8 C 1,9 km/h (1 Bft)
23/03/2022 06:00 5,7 C 49 % 1029,7 hPa 0,0 mm 0,3 km/h (0 Bft) O 0,00 h 0,025 mm 12 W/m -4,2 C 5,7 C 1,3 km/h (1 Bft)
23/03/2022 07:00 6,4 C 47 % 1030,1 hPa 0,0 mm 0,3 km/h (0 Bft) O 0,00 h 0,000 mm 36 W/m -4,2 C 6,4 C 1,9 km/h (1 Bft)
23/03/2022 08:00 9,6 C 43 % 1030,3 hPa 0,0 mm 0,0 km/h (0 Bft) N 0,63 h 0,025 mm 218 W/m -2,3 C 9,6 C 0,0 km/h (0 Bft)
23/03/2022 09:00 15,1 C 35 % 1030,3 hPa 0,0 mm 0,0 km/h (0 Bft) E 1,00 h 0,102 mm 445 W/m -0,3 C 15,1 C 0,1 km/h (0 Bft)
23/03/2022 10:00 17,2 C 30 % 1030,1 hPa 0,0 mm 1,3 km/h (1 Bft) E 1,00 h 0,229 mm 578 W/m -0,7 C 17,2 C 4,0 km/h (1 Bft)
23/03/2022 11:00 17,9 C 30 % 1030,0 hPa 0,0 mm 2,3 km/h (1 Bft) E 1,00 h 0,330 mm 668 W/m -0,1 C 17,9 C 5,6 km/h (1 Bft)
23/03/2022 12:00 18,3 C 32 % 1029,9 hPa 0,0 mm 1,5 km/h (1 Bft) SE 1,00 h 0,406 mm 699 W/m 1,2 C 18,3 C 5,0 km/h (1 Bft)
23/03/2022 13:00 18,9 C 31 % 1029,6 hPa 0,0 mm 0,7 km/h (0 Bft) E 1,00 h 0,406 mm 680 W/m 1,3 C 18,9 C 3,5 km/h (1 Bft)
23/03/2022 14:00 18,8 C 27 % 1028,8 hPa 0,0 mm 0,7 km/h (0 Bft) S-SE 1,00 h 0,406 mm 610 W/m -0,6 C 18,8 C 3,2 km/h (1 Bft)
23/03/2022 15:00 18,9 C 24 % 1028,2 hPa 0,0 mm 0,4 km/h (0 Bft) E 1,00 h 0,356 mm 490 W/m -2,3 C 18,9 C 2,1 km/h (1 Bft)
23/03/2022 16:00 18,7 C 27 % 1027,7 hPa 0,0 mm 0,0 km/h (0 Bft) E-SE 1,00 h 0,279 mm 332 W/m -0,6 C 18,7 C 0,4 km/h (0 Bft)
23/03/2022 17:00 17,2 C 25 % 1027,4 hPa 0,0 mm 0,0 km/h (0 Bft) N 0,90 h 0,203 mm 158 W/m -2,9 C 17,2 C 0,0 km/h (0 Bft)
23/03/2022 18:00 14,6 C 26 % 1027,2 hPa 0,0 mm 0,0 km/h (0 Bft) N 0,00 h 0,102 mm 16 W/m -4,5 C 14,6 C 0,0 km/h (0 Bft)
23/03/2022 19:00 12,3 C 31 % 1027,3 hPa 0,0 mm 0,0 km/h (0 Bft) N 0,00 h 0,025 mm 0 W/m -4,3 C 12,3 C 0,0 km/h (0 Bft)
23/03/2022 20:00 11,4 C 35 % 1027,2 hPa 0,0 mm 0,0 km/h (0 Bft) N 0,00 h 0,000 mm 0 W/m -3,6 C 11,4 C 0,0 km/h (0 Bft)
23/03/2022 21:00 10,6 C 36 % 1027,2 hPa 0,0 mm 0,0 km/h (0 Bft) N 0,00 h 0,051 mm 0 W/m -3,8 C 10,6 C 0,0 km/h (0 Bft)
23/03/2022 22:00 10,5 C 36 % 1027,1 hPa 0,0 mm 0,7 km/h (0 Bft) E-SE 0,00 h 0,051 mm 0 W/m -3,9 C 10,5 C 1,9 km/h (1 Bft)
23/03/2022 23:00 10,2 C 38 % 1027,1 hPa 0,0 mm 0,1 km/h (0 Bft) E-SE 0,00 h 0,051 mm 0 W/m -3,5 C 10,2 C 1,3 km/h (1 Bft)
24/03/2022 00:00 10,1 C 38 % 1026,8 hPa 0,0 mm 1,4 km/h (1 Bft) N-NO 0,00 h 0,051 mm 0 W/m -3,5 C 10,1 C 4,2 km/h (1 Bft)
24/03/2022 01:00 10,2 C 38 % 1026,4 hPa 0,0 mm 0,7 km/h (0 Bft) N-NO 0,00 h 0,051 mm 0 W/m -3,6 C 10,2 C 2,9 km/h (1 Bft)
24/03/2022 02:00 9,9 C 37 % 1026,0 hPa 0,0 mm 0,5 km/h (0 Bft) NO 0,00 h 0,051 mm 0 W/m -3,9 C 9,9 C 2,1 km/h (1 Bft)
24/03/2022 03:00 9,6 C 37 % 1025,6 hPa 0,0 mm 0,5 km/h (0 Bft) NO 0,00 h 0,051 mm 0 W/m -4,2 C 9,6 C 2,9 km/h (1 Bft)
24/03/2022 04:00 9,1 C 37 % 1025,5 hPa 0,0 mm 0,5 km/h (0 Bft) NO 0,00 h 0,051 mm 0 W/m -4,7 C 9,1 C 1,6 km/h (1 Bft)
24/03/2022 05:00 9,4 C 36 % 1025,6 hPa 0,0 mm 0,1 km/h (0 Bft) NO 0,00 h 0,051 mm 0 W/m -4,9 C 9,4 C 1,4 km/h (1 Bft)
24/03/2022 06:00 8,4 C 38 % 1026,1 hPa 0,0 mm 0,3 km/h (0 Bft) NO 0,02 h 0,051 mm 13 W/m -5,0 C 8,4 C 1,4 km/h (1 Bft)
24/03/2022 07:00 8,9 C 38 % 1026,6 hPa 0,0 mm 0,1 km/h (0 Bft) NO 0,00 h 0,025 mm 38 W/m -4,7 C 8,9 C 0,8 km/h (0 Bft)
24/03/2022 08:00 11,9 C 36 % 1026,7 hPa 0,0 mm 0,0 km/h (0 Bft) N 0,62 h 0,025 mm 219 W/m -2,8 C 11,9 C 0,0 km/h (0 Bft)
24/03/2022 09:00 16,5 C 30 % 1026,9 hPa 0,0 mm 0,1 km/h (0 Bft) E 1,00 h 0,127 mm 452 W/m -1,2 C 16,5 C 0,3 km/h (0 Bft)
24/03/2022 10:00 19,7 C 23 % 1026,9 hPa 0,0 mm 0,6 km/h (0 Bft) SE 1,00 h 0,254 mm 585 W/m -2,0 C 19,7 C 2,3 km/h (1 Bft)
24/03/2022 11:00 20,8 C 22 % 1027,0 hPa 0,0 mm 1,5 km/h (1 Bft) E 1,00 h 0,356 mm 673 W/m -1,5 C 20,8 C 4,9 km/h (1 Bft)
24/03/2022 12:00 21,3 C 23 % 1026,9 hPa 0,0 mm 0,7 km/h (0 Bft) E 1,00 h 0,406 mm 708 W/m -1,0 C 21,3 C 3,7 km/h (1 Bft)
24/03/2022 13:00 21,2 C 22 % 1026,6 hPa 0,0 mm 0,6 km/h (0 Bft) E 1,00 h 0,432 mm 686 W/m -1,1 C 21,2 C 3,4 km/h (1 Bft)
24/03/2022 14:00 21,6 C 23 % 1026,0 hPa 0,0 mm 0,2 km/h (0 Bft) E 1,00 h 0,406 mm 610 W/m -0,6 C 21,6 C 2,1 km/h (1 Bft)
24/03/2022 15:00 20,5 C 25 % 1025,5 hPa 0,0 mm 0,9 km/h (0 Bft) S-SE 1,00 h 0,381 mm 490 W/m -0,3 C 20,5 C 3,6 km/h (1 Bft)
24/03/2022 16:00 18,9 C 40 % 1025,3 hPa 0,0 mm 0,7 km/h (0 Bft) E 1,00 h 0,305 mm 334 W/m 4,8 C 18,9 C 2,9 km/h (1 Bft)
24/03/2022 17:00 17,1 C 55 % 1025,4 hPa 0,0 mm 0,0 km/h (0 Bft) N 0,88 h 0,203 mm 160 W/m 8,0 C 17,1 C 0,3 km/h (0 Bft)
24/03/2022 18:00 14,2 C 72 % 1025,7 hPa 0,0 mm 0,0 km/h (0 Bft) N 0,03 h 0,102 mm 19 W/m 9,2 C 14,2 C 0,1 km/h (0 Bft)
24/03/2022 19:00 12,1 C 79 % 1026,1 hPa 0,0 mm 0,0 km/h (0 Bft) N 0,00 h 0,025 mm 0 W/m 8,4 C 12,1 C 0,0 km/h (0 Bft)
24/03/2022 20:00 10,6 C 83 % 1026,1 hPa 0,0 mm 0,0 km/h (0 Bft) N 0,00 h 0,000 mm 0 W/m 7,8 C 10,6 C 0,0 km/h (0 Bft)
24/03/2022 21:00 9,8 C 73 % 1026,0 hPa 0,0 mm 0,0 km/h (0 Bft) E 0,00 h 0,025 mm 0 W/m 5,1 C 9,8 C 0,1 km/h (0 Bft)
24/03/2022 22:00 9,6 C 56 % 1025,7 hPa 0,0 mm 0,4 km/h (0 Bft) E 0,00 h 0,025 mm 0 W/m 1,3 C 9,6 C 1,3 km/h (1 Bft)
24/03/2022 23:00 9,7 C 46 % 1025,4 hPa 0,0 mm 0,2 km/h (0 Bft) E 0,00 h 0,025 mm 0 W/m -1,3 C 9,7 C 1,2 km/h (1 Bft)
25/03/2022 00:00 9,8 C 41 % 1025,2 hPa 0,0 mm 0,1 km/h (0 Bft) E 0,00 h 0,025 mm 0 W/m -2,9 C 9,8 C 0,7 km/h (0 Bft)
25/03/2022 01:00 9,6 C 40 % 1025,0 hPa 0,0 mm 0,2 km/h (0 Bft) E 0,00 h 0,051 mm 0 W/m -3,2 C 9,6 C 0,9 km/h (0 Bft)
25/03/2022 02:00 8,9 C 43 % 1024,7 hPa 0,0 mm 0,1 km/h (0 Bft) E 0,00 h 0,051 mm 0 W/m -3,2 C 8,9 C 0,2 km/h (0 Bft)
25/03/2022 03:00 8,2 C 45 % 1024,3 hPa 0,0 mm 0,0 km/h (0 Bft) N 0,00 h 0,051 mm 0 W/m -3,1 C 8,2 C 0,2 km/h (0 Bft)
25/03/2022 04:00 7,8 C 46 % 1024,4 hPa 0,0 mm 0,1 km/h (0 Bft) E 0,00 h 0,025 mm 0 W/m -3,2 C 7,8 C 0,2 km/h (0 Bft)
25/03/2022 05:00 7,4 C 47 % 1024,5 hPa 0,0 mm 0,2 km/h (0 Bft) E 0,00 h 0,025 mm 0 W/m -3,1 C 7,4 C 1,1 km/h (0 Bft)
25/03/2022 06:00 7,3 C 48 % 1024,8 hPa 0,0 mm 0,9 km/h (0 Bft) E 0,00 h 0,025 mm 12 W/m -3,1 C 7,3 C 1,9 km/h (1 Bft)
25/03/2022 07:00 7,8 C 50 % 1025,0 hPa 0,0 mm 0,1 km/h (0 Bft) E 0,00 h 0,025 mm 34 W/m -1,9 C 7,8 C 0,3 km/h (0 Bft)
25/03/2022 08:00 10,5 C 48 % 1025,2 hPa 0,0 mm 0,2 km/h (0 Bft) E 0,65 h 0,025 mm 226 W/m -0,2 C 10,5 C 0,6 km/h (0 Bft)
25/03/2022 09:00 15,2 C 39 % 1025,2 hPa 0,0 mm 1,0 km/h (0 Bft) E 1,00 h 0,127 mm 455 W/m 1,2 C 15,2 C 3,1 km/h (1 Bft)
25/03/2022 10:00 17,8 C 37 % 1025,3 hPa 0,0 mm 2,3 km/h (1 Bft) E 1,00 h 0,254 mm 593 W/m 2,8 C 17,8 C 6,3 km/h (2 Bft)
25/03/2022 11:00 18,4 C 52 % 1025,3 hPa 0,0 mm 1,5 km/h (1 Bft) E 1,00 h 0,356 mm 674 W/m 8,5 C 18,4 C 5,9 km/h (2 Bft)
25/03/2022 12:00 18,8 C 53 % 1025,2 hPa 0,0 mm 1,4 km/h (1 Bft) E 1,00 h 0,381 mm 692 W/m 8,8 C 18,8 C 5,9 km/h (2 Bft)
25/03/2022 13:00 19,0 C 52 % 1024,9 hPa 0,0 mm 1,3 km/h (1 Bft) E 1,00 h 0,406 mm 687 W/m 8,8 C 19,0 C 5,2 km/h (1 Bft)
25/03/2022 14:00 18,7 C 50 % 1024,7 hPa 0,0 mm 0,7 km/h (0 Bft) E 1,00 h 0,406 mm 610 W/m 8,0 C 18,7 C 4,4 km/h (1 Bft)
25/03/2022 15:00 18,5 C 46 % 1024,3 hPa 0,0 mm 0,7 km/h (0 Bft) E 1,00 h 0,356 mm 489 W/m 6,7 C 18,5 C 4,0 km/h (1 Bft)
25/03/2022 16:00 17,6 C 44 % 1024,0 hPa 0,0 mm 0,6 km/h (0 Bft) E 1,00 h 0,279 mm 332 W/m 5,3 C 17,6 C 3,1 km/h (1 Bft)
25/03/2022 17:00 15,9 C 50 % 1023,8 hPa 0,0 mm 0,2 km/h (0 Bft) E 0,67 h 0,203 mm 141 W/m 5,4 C 15,9 C 1,2 km/h (1 Bft)
25/03/2022 18:00 13,1 C 54 % 1023,7 hPa 0,0 mm 0,1 km/h (0 Bft) E-SE 0,02 h 0,076 mm 19 W/m 4,1 C 13,1 C 0,7 km/h (0 Bft)
25/03/2022 19:00 11,2 C 58 % 1023,6 hPa 0,0 mm 0,0 km/h (0 Bft) N 0,00 h 0,025 mm 0 W/m 3,2 C 11,2 C 0,5 km/h (0 Bft)
25/03/2022 20:00 10,6 C 60 % 1023,4 hPa 0,0 mm 0,5 km/h (0 Bft) E 0,00 h 0,000 mm 0 W/m 3,1 C 10,6 C 1,1 km/h (1 Bft)
25/03/2022 21:00 10,2 C 60 % 1023,4 hPa 0,0 mm 0,6 km/h (0 Bft) E 0,00 h 0,025 mm 0 W/m 2,7 C 10,2 C 2,2 km/h (1 Bft)
25/03/2022 22:00 9,7 C 59 % 1023,3 hPa 0,0 mm 0,7 km/h (0 Bft) NO 0,00 h 0,025 mm 0 W/m 2,1 C 9,7 C 2,8 km/h (1 Bft)
25/03/2022 23:00 9,5 C 58 % 1023,3 hPa 0,0 mm 0,0 km/h (0 Bft) NO 0,00 h 0,025 mm 0 W/m 1,6 C 9,5 C 0,2 km/h (0 Bft)
26/03/2022 00:00 9,0 C 57 % 1023,2 hPa 0,0 mm 0,0 km/h (0 Bft) N 0,00 h 0,025 mm 0 W/m 1,0 C 9,0 C 0,1 km/h (0 Bft)
26/03/2022 01:00 8,3 C 58 % 1023,4 hPa 0,0 mm 0,0 km/h (0 Bft) NO 0,00 h 0,025 mm 0 W/m 0,4 C 8,3 C 0,1 km/h (0 Bft)
26/03/2022 02:00 8,2 C 52 % 1023,4 hPa 0,0 mm 0,1 km/h (0 Bft) NO 0,00 h 0,025 mm 0 W/m -1,1 C 8,2 C 0,9 km/h (0 Bft)
26/03/2022 03:00 8,9 C 45 % 1023,2 hPa 0,0 mm 0,2 km/h (0 Bft) NO 0,00 h 0,025 mm 0 W/m -2,3 C 8,9 C 1,4 km/h (1 Bft)
26/03/2022 04:00 9,3 C 42 % 1023,0 hPa 0,0 mm 0,5 km/h (0 Bft) N-NE 0,00 h 0,025 mm 0 W/m -2,9 C 9,3 C 1,9 km/h (1 Bft)
26/03/2022 05:00 9,1 C 42 % 1022,9 hPa 0,0 mm 0,2 km/h (0 Bft) N 0,00 h 0,051 mm 0 W/m -3,0 C 9,1 C 1,4 km/h (1 Bft)
26/03/2022 06:00 8,8 C 45 % 1023,1 hPa 0,0 mm 0,2 km/h (0 Bft) N 0,03 h 0,051 mm 15 W/m -2,5 C 8,8 C 1,8 km/h (1 Bft)
26/03/2022 07:00 9,4 C 47 % 1023,6 hPa 0,0 mm 0,6 km/h (0 Bft) N 0,00 h 0,025 mm 47 W/m -1,3 C 9,4 C 2,9 km/h (1 Bft)
26/03/2022 08:00 12,2 C 49 % 1024,0 hPa 0,0 mm 0,2 km/h (0 Bft) N-NE 0,68 h 0,025 mm 232 W/m 1,7 C 12,2 C 1,9 km/h (1 Bft)
26/03/2022 09:00 16,2 C 40 % 1024,0 hPa 0,0 mm 0,7 km/h (0 Bft) N-NE 1,00 h 0,127 mm 442 W/m 2,5 C 16,2 C 4,4 km/h (1 Bft)
26/03/2022 10:00 19,1 C 35 % 1023,7 hPa 0,0 mm 2,5 km/h (1 Bft) E 1,00 h 0,254 mm 576 W/m 3,4 C 19,1 C 8,2 km/h (2 Bft)
26/03/2022 11:00 19,0 C 43 % 1023,5 hPa 0,0 mm 1,2 km/h (1 Bft) E 1,00 h 0,356 mm 665 W/m 6,0 C 19,0 C 4,6 km/h (1 Bft)
26/03/2022 12:00 18,7 C 45 % 1023,7 hPa 0,0 mm 0,0 km/h (0 Bft) S-SO 1,00 h 0,381 mm 702 W/m 6,6 C 18,7 C 1,6 km/h (1 Bft)
26/03/2022 13:00 19,7 C 40 % 1023,4 hPa 0,0 mm 0,6 km/h (0 Bft) E 1,00 h 0,406 mm 678 W/m 5,5 C 19,7 C 3,4 km/h (1 Bft)
26/03/2022 14:00 20,1 C 35 % 1022,8 hPa 0,0 mm 1,5 km/h (1 Bft) E 1,00 h 0,406 mm 602 W/m 4,1 C 20,1 C 8,1 km/h (2 Bft)
26/03/2022 15:00 19,5 C 35 % 1022,4 hPa 0,0 mm 1,6 km/h (1 Bft) E 1,00 h 0,356 mm 442 W/m 3,6 C 19,5 C 7,9 km/h (2 Bft)
26/03/2022 16:00 18,4 C 40 % 1022,2 hPa 0,0 mm 1,6 km/h (1 Bft) E 1,00 h 0,279 mm 337 W/m 4,7 C 18,4 C 7,4 km/h (2 Bft)
26/03/2022 17:00 16,8 C 40 % 1022,4 hPa 0,0 mm 0,5 km/h (0 Bft) E 0,30 h 0,203 mm 121 W/m 3,3 C 16,8 C 3,6 km/h (1 Bft)
26/03/2022 18:00 15,3 C 42 % 1022,9 hPa 0,0 mm 0,7 km/h (0 Bft) E 0,03 h 0,076 mm 30 W/m 2,4 C 15,3 C 3,4 km/h (1 Bft)
26/03/2022 19:00 14,1 C 48 % 1023,2 hPa 0,0 mm 0,5 km/h (0 Bft) E 0,00 h 0,025 mm 0 W/m 3,1 C 14,1 C 2,8 km/h (1 Bft)
26/03/2022 20:00 13,7 C 50 % 1023,6 hPa 0,0 mm 0,6 km/h (0 Bft) N-NE 0,00 h 0,025 mm 0 W/m 3,3 C 13,7 C 3,0 km/h (1 Bft)
26/03/2022 21:00 13,2 C 49 % 1023,7 hPa 0,0 mm 0,0 km/h (0 Bft) N 0,00 h 0,051 mm 0 W/m 2,7 C 13,2 C 0,2 km/h (0 Bft)
26/03/2022 22:00 13,3 C 45 % 1024,0 hPa 0,0 mm 0,2 km/h (0 Bft) N-NE 0,00 h 0,051 mm 0 W/m 1,8 C 13,3 C 1,7 km/h (1 Bft)
26/03/2022 23:00 13,2 C 43 % 1024,1 hPa 0,0 mm 0,0 km/h (0 Bft) N-NE 0,00 h 0,051 mm 0 W/m 0,9 C 13,2 C 0,4 km/h (0 Bft)
27/03/2022 00:00 13,3 C 41 % 1024,2 hPa 0,0 mm 0,0 km/h (0 Bft) N-NE 0,00 h 0,051 mm 0 W/m 0,4 C 13,3 C 0,6 km/h (0 Bft)
27/03/2022 01:00 13,3 C 52 % 1024,5 hPa 0,0 mm 3,0 km/h (1 Bft) S 0,00 h 0,051 mm 0 W/m 3,5 C 13,3 C 5,3 km/h (1 Bft)
27/03/2022 03:00 13,0 C 54 % 1024,6 hPa 0,0 mm 0,3 km/h (0 Bft) SE 0,00 h 0,051 mm 0 W/m 3,9 C 13,0 C 1,9 km/h (1 Bft)
27/03/2022 04:00 12,6 C 55 % 1024,3 hPa 0,0 mm 0,2 km/h (0 Bft) NO 0,00 h 0,025 mm 0 W/m 3,7 C 12,6 C 0,9 km/h (0 Bft)
27/03/2022 05:00 12,2 C 53 % 1024,2 hPa 0,0 mm 0,0 km/h (0 Bft) N 0,00 h 0,025 mm 0 W/m 3,0 C 12,2 C 0,1 km/h (0 Bft)
27/03/2022 06:00 12,2 C 53 % 1024,1 hPa 0,0 mm 0,0 km/h (0 Bft) N 0,00 h 0,025 mm 0 W/m 2,9 C 12,2 C 0,4 km/h (0 Bft)
27/03/2022 07:00 13,0 C 48 % 1024,1 hPa 0,0 mm 0,5 km/h (0 Bft) N-NO 0,00 h 0,025 mm 8 W/m 2,3 C 13,0 C 3,4 km/h (1 Bft)
27/03/2022 08:00 13,8 C 46 % 1024,3 hPa 0,0 mm 0,1 km/h (0 Bft) N-NE 0,00 h 0,025 mm 32 W/m 2,4 C 13,8 C 1,0 km/h (0 Bft)
27/03/2022 09:00 14,0 C 46 % 1024,7 hPa 0,0 mm 1,0 km/h (0 Bft) E-SE 0,00 h 0,025 mm 121 W/m 2,7 C 14,0 C 3,2 km/h (1 Bft)
27/03/2022 10:00 15,6 C 43 % 1024,9 hPa 0,0 mm 0,1 km/h (0 Bft) N-NE 0,30 h 0,076 mm 291 W/m 3,1 C 15,6 C 0,5 km/h (0 Bft)
27/03/2022 11:00 20,1 C 35 % 1024,9 hPa 0,0 mm 0,2 km/h (0 Bft) N-NE 1,00 h 0,152 mm 538 W/m 4,0 C 20,1 C 1,2 km/h (1 Bft)
27/03/2022 12:00 22,9 C 27 % 1024,7 hPa 0,0 mm 0,4 km/h (0 Bft) N-NE 0,98 h 0,330 mm 522 W/m 2,7 C 22,9 C 3,9 km/h (1 Bft)
27/03/2022 13:00 22,8 C 26 % 1024,3 hPa 0,0 mm 0,2 km/h (0 Bft) N-NE 0,05 h 0,330 mm 289 W/m 2,0 C 22,8 C 2,5 km/h (1 Bft)
27/03/2022 14:00 22,2 C 27 % 1024,0 hPa 0,0 mm 1,0 km/h (0 Bft) E 0,10 h 0,178 mm 373 W/m 2,4 C 22,2 C 4,4 km/h (1 Bft)
27/03/2022 15:00 22,3 C 27 % 1023,6 hPa 0,0 mm 0,5 km/h (0 Bft) SE 0,52 h 0,254 mm 440 W/m 2,6 C 22,3 C 2,6 km/h (1 Bft)
27/03/2022 16:00 22,7 C 28 % 1023,4 hPa 0,0 mm 1,3 km/h (1 Bft) S-SE 0,85 h 0,279 mm 409 W/m 3,4 C 22,7 C 4,7 km/h (1 Bft)
27/03/2022 17:00 21,2 C 34 % 1023,5 hPa 0,0 mm 0,4 km/h (0 Bft) E-SE 0,82 h 0,279 mm 266 W/m 4,9 C 21,2 C 2,4 km/h (1 Bft)
27/03/2022 18:00 20,5 C 34 % 1023,6 hPa 0,0 mm 0,0 km/h (0 Bft) N 0,52 h 0,178 mm 134 W/m 4,0 C 20,5 C 0,0 km/h (0 Bft)
27/03/2022 19:00 18,9 C 34 % 1023,6 hPa 0,0 mm 0,5 km/h (0 Bft) E 0,00 h 0,102 mm 25 W/m 2,6 C 18,9 C 1,3 km/h (1 Bft)
27/03/2022 20:00 16,5 C 36 % 1023,9 hPa 0,0 mm 1,9 km/h (1 Bft) NO 0,00 h 0,025 mm 0 W/m 1,4 C 16,5 C 4,9 km/h (1 Bft)
27/03/2022 21:00 15,4 C 32 % 1024,8 hPa 0,0 mm 0,3 km/h (0 Bft) NO 0,00 h 0,025 mm 0 W/m -1,1 C 15,4 C 1,4 km/h (1 Bft)
27/03/2022 22:00 15,2 C 30 % 1025,3 hPa 0,0 mm 0,1 km/h (0 Bft) NO 0,00 h 0,051 mm 0 W/m -2,4 C 15,2 C 1,0 km/h (0 Bft)
27/03/2022 23:00 14,0 C 30 % 1025,2 hPa 0,0 mm 0,3 km/h (0 Bft) NO 0,00 h 0,051 mm 0 W/m -3,4 C 14,0 C 1,2 km/h (1 Bft)
Min-Date _ 22/03/22 24/03/22 26/03/22 - 21/03/22 - - - - 23/03/22 21/03/22 21/03/22
_ Min-Heure 01:11 11:56 16:30 - 00:00 - - - - 19:10 03:30 00:00
Minimum _ 5,6 C 20 % 1022,1 hPa - 0,0 km/h (0 Bft) - - - - -5,7 C 5,0 C 0,0 km/h (0 Bft)
Max-Date _ 27/03/22 24/03/22 21/03/22 21/03/22 21/03/22 - 21/03/22 24/03/22 27/03/22 25/03/22 27/03/22 26/03/22
_ Max-Heure 13:03 20:09 10:30 00:00 13:58 - 08:23 13:00 12:54 11:49 13:03 14:37
Maximum _ 23,9 C 85 % 1034,1 hPa 0,0 mm 11,3 km/h
E (2 Bft)
- 0,02 h 0,432 mm 828 W/m 9,8 C 23,9 C 25,7 km/h
E (4 Bft)
Moyenne _ 12,8 C 45 % 1027,4 hPa #0,0 mm 0,6 km/h (0 Bft) E #61:51 h #21,543 mm 358 W/m 0,6 C 12,8 C 2,5 km/h (1 Bft)
Roquefort les pins